createdAt,value
2019-03-06T00:01:11.435Z,4.53
2019-03-06T00:03:42.530Z,4.30
2019-03-06T00:06:16.668Z,3.90
2019-03-06T00:08:42.373Z,4.40
2019-03-06T00:11:13.358Z,4.63
2019-03-06T00:13:43.206Z,4.10
2019-03-06T00:16:13.114Z,4.50
2019-03-06T00:18:44.269Z,4.10
2019-03-06T00:21:14.031Z,4.97
2019-03-06T00:23:44.006Z,4.73
2019-03-06T00:26:13.995Z,4.83
2019-03-06T00:28:43.830Z,5.33
2019-03-06T00:31:13.706Z,4.50
2019-03-06T00:33:43.678Z,5.13
2019-03-06T00:36:19.565Z,4.10
2019-03-06T00:38:48.854Z,4.77
2019-03-06T00:41:27.095Z,4.70
2019-03-06T00:43:56.815Z,4.87
2019-03-06T00:46:26.973Z,4.93
2019-03-06T00:48:56.759Z,4.50
2019-03-06T00:51:26.641Z,5.63
2019-03-06T00:53:56.750Z,5.00
2019-03-06T00:56:26.488Z,5.20
2019-03-06T00:58:56.293Z,5.03
2019-03-06T01:01:26.422Z,4.20
2019-03-06T01:03:57.242Z,5.10
2019-03-06T01:06:28.474Z,4.70
2019-03-06T01:08:58.210Z,5.00
2019-03-06T01:11:28.118Z,4.93
2019-03-06T01:13:58.354Z,4.53
2019-03-06T01:16:29.087Z,5.20
2019-03-06T01:18:59.215Z,4.87
2019-03-06T01:21:29.506Z,4.97
2019-03-06T01:23:59.443Z,4.70
2019-03-06T01:26:30.199Z,5.20
2019-03-06T01:28:59.950Z,4.90
2019-03-06T01:31:30.426Z,5.07
2019-03-06T01:34:07.366Z,5.70
2019-03-06T01:36:50.091Z,4.97
2019-03-06T01:39:30.618Z,4.80
2019-03-06T01:42:20.633Z,4.80
2019-03-06T01:44:56.386Z,5.20
2019-03-06T01:47:26.214Z,5.03
2019-03-06T01:49:56.932Z,5.60
2019-03-06T01:52:27.155Z,5.43
2019-03-06T01:54:56.858Z,5.00
2019-03-06T01:57:26.722Z,6.03
2019-03-06T01:59:56.931Z,5.53
2019-03-06T02:02:26.846Z,5.90
2019-03-06T02:04:56.770Z,4.97
2019-03-06T02:07:27.074Z,5.70
2019-03-06T02:09:57.178Z,5.57
2019-03-06T02:15:48.487Z,5.07
2019-03-06T02:18:18.263Z,5.40
2019-03-06T02:20:48.003Z,5.10
2019-03-06T02:23:18.121Z,5.10
2019-03-06T02:25:47.857Z,5.37
2019-03-06T02:28:17.798Z,5.10
2019-03-06T02:30:47.627Z,5.00
2019-03-06T02:33:17.589Z,5.00
2019-03-06T02:35:47.392Z,4.80
2019-03-06T02:38:17.334Z,5.37
2019-03-06T02:40:48.048Z,4.20
2019-03-06T02:43:18.259Z,4.93
2019-03-06T02:45:48.079Z,4.60
2019-03-06T02:48:17.889Z,5.10
2019-03-06T02:50:47.843Z,5.70
2019-03-06T02:53:19.044Z,6.10
2019-03-06T02:55:48.930Z,4.90
2019-03-06T02:58:22.634Z,5.17
2019-03-06T03:00:58.117Z,5.20
2019-03-06T03:03:53.095Z,4.97
2019-03-06T03:06:30.352Z,5.20
2019-03-06T03:09:00.330Z,5.07
2019-03-06T03:11:30.222Z,5.63
2019-03-06T03:14:00.041Z,5.63
2019-03-06T03:16:30.075Z,5.90
2019-03-06T03:18:59.881Z,4.70
2019-03-06T03:21:29.617Z,4.80
2019-03-06T03:23:59.384Z,5.40
2019-03-06T03:26:29.512Z,5.23
2019-03-06T03:28:59.426Z,6.27
2019-03-06T03:31:30.223Z,5.43
2019-03-06T03:34:00.292Z,5.53
2019-03-06T03:36:30.423Z,6.00
2019-03-06T03:39:00.073Z,6.27
2019-03-06T03:41:29.679Z,5.80
2019-03-06T03:43:59.920Z,5.47
2019-03-06T03:46:29.795Z,6.10
2019-03-06T03:48:59.493Z,6.70
2019-03-06T03:51:29.555Z,5.97
2019-03-06T03:53:59.293Z,5.90
2019-03-06T03:56:28.967Z,6.00
2019-03-06T03:58:59.294Z,5.53
2019-03-06T04:01:29.156Z,6.23
2019-03-06T04:03:58.674Z,5.97
2019-03-06T04:06:28.409Z,6.13
2019-03-06T04:08:59.044Z,6.60
2019-03-06T04:11:29.586Z,6.17
2019-03-06T04:13:59.048Z,6.30
2019-03-06T04:16:29.242Z,5.80
2019-03-06T04:18:59.086Z,6.13
2019-03-06T04:21:28.641Z,6.13
2019-03-06T04:23:58.664Z,6.30
2019-03-06T04:26:28.263Z,6.50
2019-03-06T04:28:57.999Z,6.20
2019-03-06T04:31:31.618Z,6.43
2019-03-06T04:34:02.907Z,6.10
2019-03-06T04:36:32.724Z,6.27
2019-03-06T04:39:02.580Z,6.83
2019-03-06T04:41:32.189Z,6.77
2019-03-06T04:44:03.398Z,6.73
2019-03-06T04:46:34.121Z,6.37
2019-03-06T04:49:06.253Z,6.40
2019-03-06T04:51:37.636Z,6.97
2019-03-06T04:54:08.138Z,6.73
2019-03-06T04:56:38.078Z,6.73
2019-03-06T04:59:08.106Z,7.00
2019-03-06T05:01:37.588Z,6.40
2019-03-06T05:04:08.431Z,6.13
2019-03-06T05:06:38.350Z,6.43
2019-03-06T05:09:09.121Z,6.20
2019-03-06T05:11:38.259Z,5.20
2019-03-06T05:14:09.725Z,5.43
2019-03-06T05:16:46.294Z,5.50
2019-03-06T05:19:15.836Z,5.57
2019-03-06T05:21:45.584Z,5.47
2019-03-06T05:24:14.949Z,5.90
2019-03-06T05:26:45.229Z,5.27
2019-03-06T05:29:14.772Z,5.20
2019-03-06T05:31:53.963Z,4.73
2019-03-06T05:34:23.570Z,5.40
2019-03-06T05:37:10.359Z,4.93
2019-03-06T05:39:40.164Z,5.00
2019-03-06T05:42:09.901Z,5.10
2019-03-06T05:44:39.822Z,5.57
2019-03-06T05:47:09.564Z,5.43
2019-03-06T05:49:39.132Z,5.70
2019-03-06T05:52:10.165Z,5.23
2019-03-06T05:54:39.920Z,4.63
2019-03-06T05:57:09.586Z,5.20
2019-03-06T05:59:39.446Z,4.23
2019-03-06T06:02:08.582Z,5.20
2019-03-06T06:04:38.261Z,5.40
2019-03-06T06:07:07.714Z,5.17
2019-03-06T06:09:37.590Z,5.20
2019-03-06T06:12:06.946Z,4.70
2019-03-06T06:14:37.737Z,4.90
2019-03-06T06:17:07.574Z,4.80
2019-03-06T06:19:37.594Z,4.67
2019-03-06T06:22:14.290Z,4.73
2019-03-06T06:24:45.420Z,5.07
2019-03-06T06:27:14.542Z,6.20
2019-03-06T06:29:44.899Z,5.73
2019-03-06T06:32:13.994Z,5.37
2019-03-06T06:34:43.206Z,5.03
2019-03-06T06:37:12.371Z,4.83
2019-03-06T06:39:42.166Z,5.07
2019-03-06T06:42:11.530Z,5.27
2019-03-06T06:44:41.318Z,4.93
2019-03-06T06:47:10.820Z,5.00
2019-03-06T06:49:40.345Z,4.70
2019-03-06T06:52:20.154Z,4.57
2019-03-06T06:55:04.669Z,4.77
2019-03-06T06:57:54.599Z,5.03
2019-03-06T07:01:18.180Z,5.10
2019-03-06T07:04:38.232Z,4.73
2019-03-06T07:07:14.221Z,4.90
2019-03-06T07:09:53.107Z,3.60
2019-03-06T07:12:31.526Z,4.73
2019-03-06T07:15:05.716Z,4.67
2019-03-06T07:17:46.645Z,4.27
2019-03-06T07:20:53.118Z,4.03
2019-03-06T07:24:31.669Z,3.97
2019-03-06T07:27:07.018Z,4.10
2019-03-06T07:29:41.592Z,3.70
2019-03-06T07:32:20.970Z,4.30
2019-03-06T07:36:09.978Z,4.40
2019-03-06T07:38:39.972Z,4.47
2019-03-06T07:41:14.644Z,3.87
2019-03-06T07:44:29.916Z,4.83
2019-03-06T07:48:58.176Z,3.83
2019-03-06T07:52:36.238Z,4.47
2019-03-06T07:55:14.629Z,3.87
2019-03-06T07:59:56.603Z,3.80
2019-03-06T08:02:33.997Z,3.80
2019-03-06T08:05:03.662Z,4.40
2019-03-06T08:07:33.684Z,4.67
2019-03-06T08:10:08.814Z,4.27
2019-03-06T08:12:43.225Z,4.20
2019-03-06T08:15:44.463Z,4.20
2019-03-06T08:19:19.291Z,4.37
2019-03-06T08:21:55.942Z,4.43
2019-03-06T08:24:38.161Z,4.47
2019-03-06T08:27:07.627Z,4.70
2019-03-06T08:29:36.872Z,4.43
2019-03-06T08:32:17.349Z,5.33
2019-03-06T08:34:46.870Z,4.60
2019-03-06T08:37:17.548Z,4.47
2019-03-06T08:39:46.254Z,4.60
2019-03-06T08:42:16.211Z,5.03
2019-03-06T08:44:45.981Z,4.43
2019-03-06T08:48:22.112Z,4.47
2019-03-06T08:50:57.913Z,4.10
2019-03-06T08:53:37.028Z,4.23
2019-03-06T08:56:10.310Z,3.20
2019-03-06T08:58:50.085Z,4.40
2019-03-06T09:01:29.793Z,3.67
2019-03-06T09:04:06.073Z,3.80
2019-03-06T09:06:43.543Z,3.40
2019-03-06T09:11:20.419Z,3.73
2019-03-06T09:13:57.071Z,3.63
2019-03-06T09:25:53.278Z,3.50
2019-03-06T09:28:27.746Z,3.13
2019-03-06T09:31:04.522Z,3.20
2019-03-06T09:33:39.785Z,2.47
2019-03-06T09:36:29.798Z,2.70
2019-03-06T09:39:22.825Z,3.00
2019-03-06T09:41:57.121Z,2.63
2019-03-06T09:44:34.006Z,2.90
2019-03-06T09:47:15.154Z,2.80
2019-03-06T09:49:57.037Z,3.00
2019-03-06T09:53:40.223Z,2.83
2019-03-06T09:56:14.600Z,2.93
2019-03-06T09:58:49.193Z,3.67
2019-03-06T10:01:24.857Z,3.03
2019-03-06T10:06:04.934Z,3.40
2019-03-06T10:08:39.837Z,3.80
2019-03-06T10:11:29.678Z,3.33
2019-03-06T10:14:08.346Z,6.20
2019-03-06T10:16:49.198Z,3.50
2019-03-06T10:19:24.681Z,2.93
2019-03-06T10:21:53.931Z,2.80
2019-03-06T10:24:23.721Z,3.53
2019-03-06T10:26:53.200Z,3.03
2019-03-06T10:29:23.780Z,4.03
2019-03-06T10:31:53.426Z,3.27
2019-03-06T10:34:24.282Z,3.10
2019-03-06T10:36:54.326Z,3.33
2019-03-06T10:39:25.651Z,2.90
2019-03-06T10:41:58.078Z,3.90
2019-03-06T10:44:29.880Z,3.33
2019-03-06T10:46:58.054Z,2.73
2019-03-06T10:49:28.966Z,2.90
2019-03-06T10:51:59.566Z,2.77
2019-03-06T10:54:44.697Z,2.77
2019-03-06T10:57:31.352Z,3.00
2019-03-06T11:00:07.370Z,3.07
2019-03-06T11:02:51.935Z,4.00
2019-03-06T11:05:28.807Z,2.87
2019-03-06T11:10:45.065Z,3.40
2019-03-06T11:13:26.730Z,3.50
2019-03-06T11:15:58.604Z,3.27
2019-03-06T11:18:29.040Z,3.00
2019-03-06T11:21:00.952Z,2.23
2019-03-06T11:23:31.043Z,2.33
2019-03-06T11:26:01.933Z,2.57
2019-03-06T11:28:43.160Z,2.40
2019-03-06T11:31:20.207Z,2.50
2019-03-06T11:33:56.274Z,2.50
2019-03-06T11:36:39.106Z,2.50
2019-03-06T11:39:27.036Z,2.20
2019-03-06T11:42:15.323Z,2.77
2019-03-06T11:44:50.852Z,2.30
2019-03-06T11:47:26.030Z,2.57
2019-03-06T11:49:57.100Z,2.40
2019-03-06T11:52:27.050Z,2.40
2019-03-06T11:55:05.930Z,2.70
2019-03-06T11:57:36.298Z,2.60
2019-03-06T12:00:07.680Z,2.43
2019-03-06T12:02:39.422Z,2.40
2019-03-06T12:05:09.186Z,2.80
2019-03-06T12:07:38.585Z,2.50
2019-03-06T12:10:13.099Z,2.87
2019-03-06T12:12:42.614Z,2.70
2019-03-06T12:15:13.754Z,3.13
2019-03-06T12:17:42.971Z,3.00
2019-03-06T12:20:12.553Z,2.80
2019-03-06T12:22:44.969Z,3.37
2019-03-06T12:25:14.454Z,2.97
2019-03-06T12:27:44.232Z,3.10
2019-03-06T12:30:14.158Z,3.10
2019-03-06T12:32:45.557Z,2.87
2019-03-06T12:35:14.838Z,3.03
2019-03-06T12:37:47.097Z,2.90
2019-03-06T12:40:14.899Z,2.90
2019-03-06T12:42:47.402Z,3.37
2019-03-06T12:45:16.832Z,2.77
2019-03-06T12:47:55.206Z,3.00
2019-03-06T12:50:19.467Z,3.00
2019-03-06T12:52:48.699Z,2.90
2019-03-06T12:55:18.474Z,3.00
2019-03-06T12:57:47.653Z,3.30
2019-03-06T13:00:19.260Z,3.17
2019-03-06T13:02:49.682Z,3.37
2019-03-06T13:05:19.118Z,3.33
2019-03-06T13:07:48.370Z,3.07
2019-03-06T13:10:18.300Z,3.70
2019-03-06T13:12:49.033Z,3.30
2019-03-06T13:15:19.903Z,3.50
2019-03-06T13:17:49.494Z,2.77
2019-03-06T13:20:18.766Z,3.17
2019-03-06T13:22:48.082Z,3.17
2019-03-06T13:25:18.162Z,3.43
2019-03-06T13:27:54.411Z,3.30
2019-03-06T13:30:17.035Z,3.30
2019-03-06T13:32:52.153Z,3.50
2019-03-06T13:35:21.549Z,3.50
2019-03-06T13:37:51.478Z,3.10
2019-03-06T13:40:20.902Z,3.03
2019-03-06T13:42:50.085Z,2.30
2019-03-06T13:45:19.869Z,2.20
2019-03-06T13:47:51.055Z,2.50
2019-03-06T13:50:19.182Z,2.50
2019-03-06T13:52:48.966Z,2.50
2019-03-06T13:55:18.634Z,2.70
2019-03-06T13:57:47.963Z,2.50
2019-03-06T14:00:18.499Z,2.77
2019-03-06T14:02:47.987Z,2.27
2019-03-06T14:05:17.647Z,2.47
2019-03-06T14:07:56.055Z,2.20
2019-03-06T14:10:19.126Z,2.40
2019-03-06T14:12:47.407Z,2.50
2019-03-06T14:15:16.964Z,2.30
2019-03-06T14:17:46.594Z,2.23
2019-03-06T14:20:16.573Z,2.00
2019-03-06T14:22:47.926Z,1.73
2019-03-06T14:25:17.535Z,1.77
2019-03-06T14:27:47.466Z,2.63
2019-03-06T14:30:18.232Z,2.10
2019-03-06T14:32:47.406Z,2.00
2019-03-06T14:35:18.140Z,1.87
2019-03-06T14:37:47.670Z,2.20
2019-03-06T14:40:21.961Z,1.93
2019-03-06T14:42:51.627Z,1.57
2019-03-06T14:45:21.560Z,1.80
2019-03-06T14:47:51.038Z,1.50
2019-03-06T14:50:21.422Z,1.47
2019-03-06T14:52:51.247Z,1.60
2019-03-06T14:55:20.835Z,1.60
2019-03-06T14:57:50.577Z,1.47
2019-03-06T15:00:21.104Z,1.60
2019-03-06T15:02:51.096Z,1.50
2019-03-06T15:05:21.429Z,1.57
2019-03-06T15:07:51.245Z,1.30
2019-03-06T15:10:20.670Z,1.27
2019-03-06T15:12:51.748Z,1.13
2019-03-06T15:15:21.559Z,1.03
2019-03-06T15:17:50.918Z,1.70
2019-03-06T15:20:20.367Z,1.43
2019-03-06T15:22:51.744Z,1.97
2019-03-06T15:25:21.943Z,1.87
2019-03-06T15:27:51.942Z,1.50
2019-03-06T15:30:21.384Z,1.93
2019-03-06T15:32:50.864Z,1.70
2019-03-06T15:35:21.574Z,1.60
2019-03-06T15:37:50.982Z,1.60
2019-03-06T15:40:23.205Z,1.60
2019-03-06T15:42:53.650Z,1.20
2019-03-06T15:45:24.291Z,1.30
2019-03-06T15:47:53.741Z,1.80
2019-03-06T15:50:23.270Z,1.77
2019-03-06T15:52:52.644Z,1.67
2019-03-06T15:55:24.690Z,1.70
2019-03-06T15:57:54.119Z,1.73
2019-03-06T16:00:45.504Z,1.07
2019-03-06T16:03:07.305Z,1.80
2019-03-06T16:05:36.783Z,1.50
2019-03-06T16:08:07.190Z,1.30
2019-03-06T16:10:36.809Z,1.50
2019-03-06T16:13:08.599Z,1.70
2019-03-06T16:15:37.802Z,1.77
2019-03-06T16:18:08.267Z,1.73
2019-03-06T16:20:37.760Z,1.50
2019-03-06T16:23:10.527Z,1.40
2019-03-06T16:25:40.422Z,1.50
2019-03-06T16:28:14.399Z,1.30
2019-03-06T16:30:45.990Z,1.33
2019-03-06T16:33:16.143Z,1.10
2019-03-06T16:35:46.967Z,1.20
2019-03-06T16:38:17.332Z,1.20
2019-03-06T16:40:47.642Z,1.10
2019-03-06T16:43:17.144Z,1.17
2019-03-06T16:45:47.230Z,1.33
2019-03-06T16:48:17.873Z,0.93
2019-03-06T16:50:47.549Z,1.33
2019-03-06T16:53:17.896Z,1.30
2019-03-06T16:55:48.322Z,1.20
2019-03-06T16:58:17.670Z,1.27
2019-03-06T17:00:46.890Z,1.13
2019-03-06T17:03:17.431Z,1.50
2019-03-06T17:05:47.042Z,1.70
2019-03-06T17:08:16.563Z,1.20
2019-03-06T17:10:46.022Z,1.20
2019-03-06T17:13:15.654Z,1.13
2019-03-06T17:15:44.818Z,1.70
2019-03-06T17:18:14.640Z,0.93
2019-03-06T17:20:43.886Z,1.20
2019-03-06T17:23:13.075Z,1.90
2019-03-06T17:25:42.790Z,1.00
2019-03-06T17:28:12.142Z,1.40
2019-03-06T17:30:41.510Z,1.10
2019-03-06T17:33:11.506Z,1.00
2019-03-06T17:35:41.066Z,0.83
2019-03-06T17:38:11.131Z,1.10
2019-03-06T17:40:40.754Z,0.80
2019-03-06T17:43:10.238Z,0.70
2019-03-06T17:45:39.669Z,1.00
2019-03-06T17:48:09.592Z,1.10
2019-03-06T17:50:38.875Z,1.00
2019-03-06T17:53:08.658Z,1.17
2019-03-06T17:55:38.222Z,1.13
2019-03-06T17:58:12.469Z,1.00
2019-03-06T18:00:44.618Z,1.10
2019-03-06T18:03:16.243Z,1.20
2019-03-06T18:05:45.406Z,1.00
2019-03-06T18:08:15.211Z,1.20
2019-03-06T18:10:45.093Z,1.57
2019-03-06T18:13:15.866Z,1.20
2019-03-06T18:15:45.699Z,1.40
2019-03-06T18:18:15.157Z,1.40
2019-03-06T18:20:45.596Z,1.50
2019-03-06T18:23:14.982Z,1.50
2019-03-06T18:25:44.450Z,1.27
2019-03-06T18:28:13.695Z,1.50
2019-03-06T18:30:42.980Z,1.70
2019-03-06T18:33:12.426Z,1.80
2019-03-06T18:35:41.612Z,1.70
2019-03-06T18:38:12.321Z,1.33
2019-03-06T18:40:42.404Z,1.40
2019-03-06T18:43:11.659Z,1.40
2019-03-06T18:45:41.017Z,1.03
2019-03-06T18:48:15.663Z,1.60
2019-03-06T18:50:45.010Z,1.03
2019-03-06T18:53:14.257Z,1.20
2019-03-06T18:55:44.885Z,0.90
2019-03-06T18:58:14.866Z,1.20
2019-03-06T19:00:47.685Z,0.97
2019-03-06T19:03:17.930Z,0.80
2019-03-06T19:05:47.193Z,1.20
2019-03-06T19:08:16.503Z,1.10
2019-03-06T19:10:46.079Z,0.90
2019-03-06T19:13:15.306Z,1.30
2019-03-06T19:15:44.635Z,1.10
2019-03-06T19:18:14.099Z,1.00
2019-03-06T19:20:44.059Z,1.20
2019-03-06T19:23:13.640Z,1.40
2019-03-06T19:25:43.251Z,1.10
2019-03-06T19:28:12.419Z,1.57
2019-03-06T19:30:41.634Z,1.03
2019-03-06T19:33:12.671Z,1.37
2019-03-06T19:35:42.007Z,1.60
2019-03-06T19:38:13.101Z,1.27
2019-03-06T19:40:42.694Z,1.27
2019-03-06T19:43:12.495Z,1.43
2019-03-06T19:45:41.799Z,1.60
2019-03-06T19:48:12.432Z,1.63
2019-03-06T19:50:41.886Z,1.50
2019-03-06T19:53:11.230Z,1.67
2019-03-06T19:55:40.674Z,1.40
2019-03-06T19:58:10.455Z,1.80
2019-03-06T20:00:39.958Z,1.47
2019-03-06T20:03:09.775Z,1.70
2019-03-06T20:06:14.943Z,1.53
2019-03-06T20:08:44.702Z,1.30
2019-03-06T20:13:33.498Z,1.53
2019-03-06T20:16:06.564Z,1.30
2019-03-06T20:18:35.853Z,1.20
2019-03-06T20:21:06.771Z,1.77
2019-03-06T20:23:37.654Z,1.43
2019-03-06T20:26:13.846Z,1.33
2019-03-06T20:28:37.918Z,1.07
2019-03-06T20:31:07.933Z,1.20
2019-03-06T20:33:37.546Z,1.40
2019-03-06T20:36:06.842Z,1.50
2019-03-06T20:38:37.182Z,1.43
2019-03-06T20:41:07.401Z,1.60
2019-03-06T20:43:36.954Z,1.43
2019-03-06T20:46:06.493Z,1.57
2019-03-06T20:48:35.986Z,1.27
2019-03-06T20:51:05.977Z,1.53
2019-03-06T20:53:35.730Z,1.60
2019-03-06T20:56:05.117Z,1.53
2019-03-06T20:58:34.818Z,1.57
2019-03-06T21:01:04.698Z,1.43
2019-03-06T21:03:34.170Z,1.40
2019-03-06T21:06:03.773Z,1.37
2019-03-06T21:08:33.332Z,1.50
2019-03-06T21:11:02.558Z,1.50
2019-03-06T21:13:32.440Z,1.77
2019-03-06T21:16:02.235Z,2.13
2019-03-06T21:18:31.822Z,1.80
2019-03-06T21:21:01.107Z,1.50
2019-03-06T21:23:31.567Z,1.93
2019-03-06T21:26:01.294Z,1.60
2019-03-06T21:28:31.270Z,1.60
2019-03-06T21:31:01.294Z,1.70
2019-03-06T21:33:30.574Z,1.90
2019-03-06T21:35:59.733Z,2.03
2019-03-06T21:38:29.175Z,2.00
2019-03-06T21:40:58.377Z,2.00
2019-03-06T21:43:27.598Z,2.30
2019-03-06T21:45:57.070Z,1.80
2019-03-06T21:48:26.326Z,2.30
2019-03-06T21:50:55.982Z,2.10
2019-03-06T21:53:25.594Z,1.90
2019-03-06T21:55:55.082Z,2.00
2019-03-06T21:58:24.335Z,1.83
2019-03-06T22:00:53.751Z,2.10
2019-03-06T22:03:24.669Z,2.40
2019-03-06T22:05:52.293Z,2.13
2019-03-06T22:08:22.366Z,1.50
2019-03-06T22:10:51.628Z,2.27
2019-03-06T22:13:20.802Z,1.77
2019-03-06T22:15:50.230Z,2.40
2019-03-06T22:18:19.934Z,1.80
2019-03-06T22:20:49.238Z,2.00
2019-03-06T22:23:19.296Z,2.20
2019-03-06T22:25:48.003Z,2.40
2019-03-06T22:28:17.203Z,2.30
2019-03-06T22:30:46.671Z,2.20
2019-03-06T22:33:16.168Z,2.33
2019-03-06T22:35:45.813Z,2.67
2019-03-06T22:38:15.877Z,2.60
2019-03-06T22:40:45.340Z,2.10
2019-03-06T22:43:14.698Z,2.07
2019-03-06T22:45:44.754Z,2.27
2019-03-06T22:48:13.898Z,1.87
2019-03-06T22:50:43.130Z,2.40
2019-03-06T22:53:13.185Z,1.90
2019-03-06T22:55:42.639Z,2.20
2019-03-06T22:58:11.878Z,2.13
2019-03-06T23:00:51.474Z,2.77
2019-03-06T23:03:20.854Z,2.20
2019-03-06T23:05:50.214Z,2.10
2019-03-06T23:08:19.367Z,2.47
2019-03-06T23:10:48.720Z,2.20
2019-03-06T23:13:18.164Z,2.27
2019-03-06T23:15:47.380Z,1.93
2019-03-06T23:18:16.606Z,2.30
2019-03-06T23:20:46.143Z,1.97
2019-03-06T23:23:15.314Z,2.17
2019-03-06T23:25:44.450Z,1.70
2019-03-06T23:28:14.037Z,2.67
2019-03-06T23:30:43.414Z,2.33
2019-03-06T23:33:12.605Z,2.20
2019-03-06T23:35:42.473Z,1.83
2019-03-06T23:38:11.996Z,2.27
2019-03-06T23:40:41.190Z,1.50
2019-03-06T23:43:11.407Z,2.27
2019-03-06T23:45:41.282Z,2.30
2019-03-06T23:48:10.475Z,2.23
2019-03-06T23:50:40.181Z,2.10
2019-03-06T23:53:11.130Z,1.97
2019-03-06T23:55:40.446Z,2.23
2019-03-06T23:58:09.916Z,1.80
